sensor_id;sensor_type;location;lat;lon;timestamp;pressure;altitude;pressure_sealevel;temperature;humidity
5814;BME280;2933;52.302;8.134;2022-11-13T00:04:56;101901.47;;;5.53;100.00
5814;BME280;2933;52.302;8.134;2022-11-13T00:09:58;101902.50;;;5.42;100.00
5814;BME280;2933;52.302;8.134;2022-11-13T00:14:59;101897.44;;;5.34;100.00
5814;BME280;2933;52.302;8.134;2022-11-13T00:20:03;101895.16;;;5.16;100.00
5814;BME280;2933;52.302;8.134;2022-11-13T00:25:05;101892.63;;;5.11;100.00
5814;BME280;2933;52.302;8.134;2022-11-13T00:30:07;101873.84;;;4.97;100.00
5814;BME280;2933;52.302;8.134;2022-11-13T00:35:10;101876.59;;;4.86;100.00
5814;BME280;2933;52.302;8.134;2022-11-13T00:40:12;101872.41;;;4.79;100.00
5814;BME280;2933;52.302;8.134;2022-11-13T00:45:13;101881.78;;;4.86;100.00
5814;BME280;2933;52.302;8.134;2022-11-13T00:50:17;101873.28;;;4.78;100.00
5814;BME280;2933;52.302;8.134;2022-11-13T00:55:19;101872.50;;;4.71;100.00
5814;BME280;2933;52.302;8.134;2022-11-13T01:00:21;101878.81;;;4.51;100.00
5814;BME280;2933;52.302;8.134;2022-11-13T01:05:24;101878.81;;;4.51;100.00
5814;BME280;2933;52.302;8.134;2022-11-13T01:10:46;101876.38;;;4.39;100.00
5814;BME280;2933;52.302;8.134;2022-11-13T01:15:49;101879.00;;;4.36;100.00
5814;BME280;2933;52.302;8.134;2022-11-13T01:21:01;101880.75;;;4.32;100.00
5814;BME280;2933;52.302;8.134;2022-11-13T01:26:04;101872.28;;;4.21;100.00
5814;BME280;2933;52.302;8.134;2022-11-13T01:31:07;101875.75;;;4.22;100.00
5814;BME280;2933;52.302;8.134;2022-11-13T01:36:13;101875.81;;;4.14;100.00
5814;BME280;2933;52.302;8.134;2022-11-13T01:41:16;101872.41;;;4.12;100.00
5814;BME280;2933;52.302;8.134;2022-11-13T01:46:22;101847.59;;;3.97;100.00
5814;BME280;2933;52.302;8.134;2022-11-13T01:51:29;101870.56;;;4.20;100.00
5814;BME280;2933;52.302;8.134;2022-11-13T01:56:32;101861.13;;;4.16;100.00
5814;BME280;2933;52.302;8.134;2022-11-13T02:01:34;101858.59;;;4.13;100.00
5814;BME280;2933;52.302;8.134;2022-11-13T02:06:41;101857.94;;;3.97;100.00
5814;BME280;2933;52.302;8.134;2022-11-13T02:11:43;101851.88;;;3.96;100.00
5814;BME280;2933;52.302;8.134;2022-11-13T02:16:47;101841.53;;;3.96;100.00
5814;BME280;2933;52.302;8.134;2022-11-13T02:21:57;101830.53;;;3.79;100.00
5814;BME280;2933;52.302;8.134;2022-11-13T02:27:03;101830.56;;;3.77;100.00
5814;BME280;2933;52.302;8.134;2022-11-13T02:32:06;101834.06;;;3.70;100.00
5814;BME280;2933;52.302;8.134;2022-11-13T02:37:07;101833.25;;;3.66;100.00
5814;BME280;2933;52.302;8.134;2022-11-13T02:42:10;101832.53;;;3.53;100.00
5814;BME280;2933;52.302;8.134;2022-11-13T02:47:11;101827.34;;;3.55;100.00
5814;BME280;2933;52.302;8.134;2022-11-13T02:52:13;101821.31;;;3.54;100.00
5814;BME280;2933;52.302;8.134;2022-11-13T02:57:16;101818.81;;;3.45;100.00
5814;BME280;2933;52.302;8.134;2022-11-13T03:02:18;101813.66;;;3.45;100.00
5814;BME280;2933;52.302;8.134;2022-11-13T03:07:20;101799.13;;;3.35;100.00
5814;BME280;2933;52.302;8.134;2022-11-13T03:12:23;101794.03;;;3.27;100.00
5814;BME280;2933;52.302;8.134;2022-11-13T03:17:25;101794.91;;;3.25;100.00
5814;BME280;2933;52.302;8.134;2022-11-13T03:22:26;101792.34;;;3.21;100.00
5814;BME280;2933;52.302;8.134;2022-11-13T03:27:30;101792.47;;;3.07;100.00
5814;BME280;2933;52.302;8.134;2022-11-13T03:32:32;101786.34;;;3.19;100.00
5814;BME280;2933;52.302;8.134;2022-11-13T03:37:35;101794.16;;;3.15;100.00
5814;BME280;2933;52.302;8.134;2022-11-13T03:42:38;101778.69;;;3.07;100.00
5814;BME280;2933;52.302;8.134;2022-11-13T03:47:39;101761.41;;;3.18;100.00
5814;BME280;2933;52.302;8.134;2022-11-13T03:52:41;101779.56;;;3.09;100.00
5814;BME280;2933;52.302;8.134;2022-11-13T03:57:45;101771.00;;;3.01;100.00
5814;BME280;2933;52.302;8.134;2022-11-13T04:02:46;101767.56;;;3.05;100.00
5814;BME280;2933;52.302;8.134;2022-11-13T04:07:48;101773.59;;;2.99;100.00
5814;BME280;2933;52.302;8.134;2022-11-13T04:12:52;101769.38;;;2.94;100.00
5814;BME280;2933;52.302;8.134;2022-11-13T04:17:53;101767.72;;;2.85;100.00
5814;BME280;2933;52.302;8.134;2022-11-13T04:22:55;101769.44;;;2.83;100.00
5814;BME280;2933;52.302;8.134;2022-11-13T04:27:58;101755.69;;;2.81;100.00
5814;BME280;2933;52.302;8.134;2022-11-13T04:33:01;101757.44;;;2.80;100.00
5814;BME280;2933;52.302;8.134;2022-11-13T04:38:03;101759.25;;;2.66;100.00
5814;BME280;2933;52.302;8.134;2022-11-13T04:43:06;101751.47;;;2.70;100.00
5814;BME280;2933;52.302;8.134;2022-11-13T04:48:07;101756.75;;;2.53;100.00
5814;BME280;2933;52.302;8.134;2022-11-13T04:53:09;101740.38;;;2.59;100.00
5814;BME280;2933;52.302;8.134;2022-11-13T04:58:12;101745.66;;;2.45;100.00
5814;BME280;2933;52.302;8.134;2022-11-13T05:03:13;101738.81;;;2.39;100.00
5814;BME280;2933;52.302;8.134;2022-11-13T05:08:15;101737.97;;;2.39;100.00
5814;BME280;2933;52.302;8.134;2022-11-13T05:13:18;101740.59;;;2.28;100.00
5814;BME280;2933;52.302;8.134;2022-11-13T05:18:23;101744.09;;;2.19;100.00
5814;BME280;2933;52.302;8.134;2022-11-13T05:23:25;101727.78;;;2.11;100.00
5814;BME280;2933;52.302;8.134;2022-11-13T05:28:28;101720.91;;;2.10;100.00
5814;BME280;2933;52.302;8.134;2022-11-13T05:33:29;101717.50;;;2.09;100.00
5814;BME280;2933;52.302;8.134;2022-11-13T05:38:31;101702.06;;;2.05;100.00
5814;BME280;2933;52.302;8.134;2022-11-13T05:43:36;101712.38;;;2.05;100.00
5814;BME280;2933;52.302;8.134;2022-11-13T05:48:38;101706.34;;;2.09;100.00
5814;BME280;2933;52.302;8.134;2022-11-13T05:53:41;101699.66;;;1.72;100.00
5814;BME280;2933;52.302;8.134;2022-11-13T05:58:44;101693.63;;;1.73;100.00
5814;BME280;2933;52.302;8.134;2022-11-13T06:03:47;101680.75;;;1.70;100.00
5814;BME280;2933;52.302;8.134;2022-11-13T06:08:49;101682.50;;;1.68;100.00
5814;BME280;2933;52.302;8.134;2022-11-13T06:13:53;101677.31;;;1.71;100.00
5814;BME280;2933;52.302;8.134;2022-11-13T06:18:56;101669.59;;;1.74;100.00
5814;BME280;2933;52.302;8.134;2022-11-13T06:23:59;101661.00;;;1.75;100.00
5814;BME280;2933;52.302;8.134;2022-11-13T06:29:04;101668.63;;;1.96;100.00
5814;BME280;2933;52.302;8.134;2022-11-13T06:34:05;101667.81;;;1.83;100.00
5814;BME280;2933;52.302;8.134;2022-11-13T06:39:08;101660.97;;;1.80;100.00
5814;BME280;2933;52.302;8.134;2022-11-13T06:44:11;101666.16;;;1.75;100.00
5814;BME280;2933;52.302;8.134;2022-11-13T06:49:12;101658.47;;;1.69;100.00
5814;BME280;2933;52.302;8.134;2022-11-13T06:54:14;101663.63;;;1.61;100.00
5814;BME280;2933;52.302;8.134;2022-11-13T06:59:17;101666.16;;;1.68;100.00
5814;BME280;2933;52.302;8.134;2022-11-13T07:04:19;101656.72;;;1.70;100.00
5814;BME280;2933;52.302;8.134;2022-11-13T07:09:20;101655.91;;;1.63;100.00
5814;BME280;2933;52.302;8.134;2022-11-13T07:14:23;101648.94;;;1.77;100.00
5814;BME280;2933;52.302;8.134;2022-11-13T07:19:25;101652.47;;;1.63;100.00
5814;BME280;2933;52.302;8.134;2022-11-13T07:24:26;101655.91;;;1.61;100.00
5814;BME280;2933;52.302;8.134;2022-11-13T07:29:29;101654.97;;;1.75;100.00
5814;BME280;2933;52.302;8.134;2022-11-13T07:34:30;101651.56;;;1.74;100.00
5814;BME280;2933;52.302;8.134;2022-11-13T07:39:33;101653.16;;;1.91;100.00
5814;BME280;2933;52.302;8.134;2022-11-13T07:44:36;101657.53;;;1.84;100.00
5814;BME280;2933;52.302;8.134;2022-11-13T07:49:38;101645.41;;;1.96;100.00
5814;BME280;2933;52.302;8.134;2022-11-13T07:54:39;101646.97;;;2.18;100.00
5814;BME280;2933;52.302;8.134;2022-11-13T07:59:42;101640.88;;;2.32;100.00
5814;BME280;2933;52.302;8.134;2022-11-13T08:04:44;101633.09;;;2.35;100.00
5814;BME280;2933;52.302;8.134;2022-11-13T08:09:45;101634.63;;;2.56;100.00
5814;BME280;2933;52.302;8.134;2022-11-13T08:14:48;101614.00;;;2.57;100.00
5814;BME280;2933;52.302;8.134;2022-11-13T08:19:50;101629.38;;;2.70;100.00
5814;BME280;2933;52.302;8.134;2022-11-13T08:24:51;101636.06;;;2.86;100.00
5814;BME280;2933;52.302;8.134;2022-11-13T08:29:55;101623.13;;;2.89;100.00
5814;BME280;2933;52.302;8.134;2022-11-13T08:34:57;101618.75;;;2.95;100.00
5814;BME280;2933;52.302;8.134;2022-11-13T08:39:59;101623.78;;;3.07;100.00
5814;BME280;2933;52.302;8.134;2022-11-13T08:45:03;101623.72;;;3.15;100.00
5814;BME280;2933;52.302;8.134;2022-11-13T08:50:05;101608.91;;;3.31;100.00
5814;BME280;2933;52.302;8.134;2022-11-13T08:55:07;101605.25;;;3.46;100.00
5814;BME280;2933;52.302;8.134;2022-11-13T09:00:11;101597.44;;;3.50;100.00
5814;BME280;2933;52.302;8.134;2022-11-13T09:05:13;101586.06;;;3.64;100.00
5814;BME280;2933;52.302;8.134;2022-11-13T09:10:15;101599.53;;;3.86;100.00
5814;BME280;2933;52.302;8.134;2022-11-13T09:15:18;101595.88;;;3.99;100.00
5814;BME280;2933;52.302;8.134;2022-11-13T09:20:19;101587.06;;;4.13;100.00
5814;BME280;2933;52.302;8.134;2022-11-13T09:25:21;101588.22;;;4.45;100.00
5814;BME280;2933;52.302;8.134;2022-11-13T09:30:24;101593.56;;;4.84;100.00
5814;BME280;2933;52.302;8.134;2022-11-13T09:35:26;101597.38;;;5.08;100.00
5814;BME280;2933;52.302;8.134;2022-11-13T09:40:38;101590.16;;;5.24;100.00
5814;BME280;2933;52.302;8.134;2022-11-13T09:45:43;101589.81;;;5.41;100.00
5814;BME280;2933;52.302;8.134;2022-11-13T09:50:45;101575.03;;;5.45;100.00
5814;BME280;2933;52.302;8.134;2022-11-13T09:55:51;101580.38;;;5.76;100.00
5814;BME280;2933;52.302;8.134;2022-11-13T10:00:57;101573.19;;;5.88;100.00
5814;BME280;2933;52.302;8.134;2022-11-13T10:06:03;101566.59;;;6.12;100.00
5814;BME280;2933;52.302;8.134;2022-11-13T10:11:19;101542.97;;;6.23;100.00
5814;BME280;2933;52.302;8.134;2022-11-13T10:16:29;101550.72;;;6.57;100.00
5814;BME280;2933;52.302;8.134;2022-11-13T10:21:36;101542.19;;;6.84;100.00
5814;BME280;2933;52.302;8.134;2022-11-13T10:26:38;101540.06;;;6.98;100.00
5814;BME280;2933;52.302;8.134;2022-11-13T10:31:43;101533.31;;;7.22;100.00
5814;BME280;2933;52.302;8.134;2022-11-13T10:36:56;101527.50;;;7.42;100.00
5814;BME280;2933;52.302;8.134;2022-11-13T10:42:00;101524.22;;;7.64;100.00
5814;BME280;2933;52.302;8.134;2022-11-13T10:47:05;101515.06;;;7.79;100.00
5814;BME280;2933;52.302;8.134;2022-11-13T10:52:16;101500.09;;;8.38;98.22
5814;BME280;2933;52.302;8.134;2022-11-13T10:57:23;101495.75;;;8.86;95.04
5814;BME280;2933;52.302;8.134;2022-11-13T11:02:27;101484.97;;;9.41;86.02
5814;BME280;2933;52.302;8.134;2022-11-13T11:07:33;101473.00;;;9.78;83.86
5814;BME280;2933;52.302;8.134;2022-11-13T11:12:39;101470.94;;;10.07;78.86
5814;BME280;2933;52.302;8.134;2022-11-13T11:17:46;101457.25;;;10.42;74.31
5814;BME280;2933;52.302;8.134;2022-11-13T11:22:52;101463.06;;;10.67;71.56
5814;BME280;2933;52.302;8.134;2022-11-13T11:27:59;101456.00;;;10.89;77.13
5814;BME280;2933;52.302;8.134;2022-11-13T11:33:08;101453.03;;;10.96;77.12
5814;BME280;2933;52.302;8.134;2022-11-13T11:38:17;101441.56;;;11.18;75.85
5814;BME280;2933;52.302;8.134;2022-11-13T11:43:28;101434.66;;;11.35;80.23
5814;BME280;2933;52.302;8.134;2022-11-13T11:48:35;101426.28;;;11.28;78.77
5814;BME280;2933;52.302;8.134;2022-11-13T11:53:44;101416.81;;;11.25;81.84
5814;BME280;2933;52.302;8.134;2022-11-13T12:04:37;101400.34;;;11.41;82.27
5814;BME280;2933;52.302;8.134;2022-11-13T12:09:46;101399.81;;;11.52;82.68
5814;BME280;2933;52.302;8.134;2022-11-13T12:15:01;101396.81;;;11.59;81.67
5814;BME280;2933;52.302;8.134;2022-11-13T12:25:24;101366.94;;;11.81;80.53
5814;BME280;2933;52.302;8.134;2022-11-13T12:30:35;101356.47;;;11.81;79.17
5814;BME280;2933;52.302;8.134;2022-11-13T12:35:42;101372.31;;;11.78;79.09
5814;BME280;2933;52.302;8.134;2022-11-13T12:40:54;101357.47;;;11.61;79.73
5814;BME280;2933;52.302;8.134;2022-11-13T12:46:01;101367.19;;;11.59;78.69
5814;BME280;2933;52.302;8.134;2022-11-13T12:51:05;101367.94;;;11.61;77.73
5814;BME280;2933;52.302;8.134;2022-11-13T12:56:14;101361.25;;;11.55;77.38
5814;BME280;2933;52.302;8.134;2022-11-13T13:01:18;101368.78;;;11.61;78.44
5814;BME280;2933;52.302;8.134;2022-11-13T13:06:40;101360.84;;;11.63;76.82
5814;BME280;2933;52.302;8.134;2022-11-13T13:11:54;101357.41;;;11.62;76.42
5814;BME280;2933;52.302;8.134;2022-11-13T13:17:16;101360.19;;;11.42;78.30
5814;BME280;2933;52.302;8.134;2022-11-13T13:22:25;101354.16;;;11.40;78.20
5814;BME280;2933;52.302;8.134;2022-11-13T13:27:32;101346.81;;;11.30;78.05
5814;BME280;2933;52.302;8.134;2022-11-13T13:32:48;101344.31;;;11.27;77.35
5814;BME280;2933;52.302;8.134;2022-11-13T13:37:55;101331.63;;;11.20;78.12
5814;BME280;2933;52.302;8.134;2022-11-13T13:43:14;101330.03;;;11.17;77.93
5814;BME280;2933;52.302;8.134;2022-11-13T13:48:23;101311.56;;;11.03;79.11
5814;BME280;2933;52.302;8.134;2022-11-13T13:53:28;101313.09;;;10.89;78.91
5814;BME280;2933;52.302;8.134;2022-11-13T13:58:34;101317.69;;;10.84;78.85
5814;BME280;2933;52.302;8.134;2022-11-13T14:03:36;101309.69;;;10.70;79.24
5814;BME280;2933;52.302;8.134;2022-11-13T14:08:38;101304.88;;;10.60;79.68
5814;BME280;2933;52.302;8.134;2022-11-13T14:13:41;101286.63;;;10.41;80.17
5814;BME280;2933;52.302;8.134;2022-11-13T14:18:43;101312.34;;;10.50;80.81
5814;BME280;2933;52.302;8.134;2022-11-13T14:23:46;101293.69;;;10.39;81.30
5814;BME280;2933;52.302;8.134;2022-11-13T14:28:53;101303.34;;;10.56;82.54
5814;BME280;2933;52.302;8.134;2022-11-13T14:33:56;101284.28;;;10.54;82.85
5814;BME280;2933;52.302;8.134;2022-11-13T14:39:00;101274.81;;;10.51;82.70
5814;BME280;2933;52.302;8.134;2022-11-13T14:44:04;101260.31;;;10.46;82.72
5814;BME280;2933;52.302;8.134;2022-11-13T14:49:11;101253.09;;;10.32;83.19
5814;BME280;2933;52.302;8.134;2022-11-13T14:54:31;101294.38;;;10.43;83.93
5814;BME280;2933;52.302;8.134;2022-11-13T14:59:38;101268.06;;;10.09;83.53
5814;BME280;2933;52.302;8.134;2022-11-13T15:04:42;101273.13;;;9.93;83.32
5814;BME280;2933;52.302;8.134;2022-11-13T15:10:18;101227.28;;;9.49;83.58
5814;BME280;2933;52.302;8.134;2022-11-13T15:15:51;101284.25;;;9.59;83.80
5814;BME280;2933;52.302;8.134;2022-11-13T15:20:52;101287.41;;;9.46;83.80
5814;BME280;2933;52.302;8.134;2022-11-13T15:25:54;101282.97;;;9.28;84.85
5814;BME280;2933;52.302;8.134;2022-11-13T15:30:57;101276.84;;;9.08;85.58
5814;BME280;2933;52.302;8.134;2022-11-13T15:35:58;101262.41;;;8.79;87.88
5814;BME280;2933;52.302;8.134;2022-11-13T15:41:00;101265.97;;;8.55;89.14
5814;BME280;2933;52.302;8.134;2022-11-13T15:46:04;101263.97;;;8.38;90.78
5814;BME280;2933;52.302;8.134;2022-11-13T15:51:15;101269.91;;;8.20;92.02
5814;BME280;2933;52.302;8.134;2022-11-13T15:56:18;101266.94;;;8.07;92.64
5814;BME280;2933;52.302;8.134;2022-11-13T16:01:22;101266.03;;;7.84;93.30
5814;BME280;2933;52.302;8.134;2022-11-13T16:06:23;101267.72;;;7.62;93.48
5814;BME280;2933;52.302;8.134;2022-11-13T16:11:25;101269.00;;;7.50;94.32
5814;BME280;2933;52.302;8.134;2022-11-13T16:16:31;101269.69;;;7.30;94.93
5814;BME280;2933;52.302;8.134;2022-11-13T16:21:34;101272.41;;;7.26;95.09
5814;BME280;2933;52.302;8.134;2022-11-13T16:26:36;101268.88;;;7.02;95.56
5814;BME280;2933;52.302;8.134;2022-11-13T16:31:39;101270.22;;;6.89;96.47
5814;BME280;2933;52.302;8.134;2022-11-13T16:36:40;101266.56;;;6.68;98.19
5814;BME280;2933;52.302;8.134;2022-11-13T16:41:42;101270.31;;;6.29;100.00
5814;BME280;2933;52.302;8.134;2022-11-13T16:46:46;101269.16;;;6.11;100.00
5814;BME280;2933;52.302;8.134;2022-11-13T16:51:48;101269.88;;;5.85;100.00
5814;BME280;2933;52.302;8.134;2022-11-13T16:56:51;101271.66;;;5.82;100.00
5814;BME280;2933;52.302;8.134;2022-11-13T17:01:54;101256.50;;;5.69;100.00
5814;BME280;2933;52.302;8.134;2022-11-13T17:06:56;101257.69;;;5.57;100.00
5814;BME280;2933;52.302;8.134;2022-11-13T17:11:57;101246.88;;;5.41;100.00
5814;BME280;2933;52.302;8.134;2022-11-13T17:17:00;101241.84;;;5.34;100.00
5814;BME280;2933;52.302;8.134;2022-11-13T17:22:02;101244.00;;;5.20;100.00
5814;BME280;2933;52.302;8.134;2022-11-13T17:27:04;101230.06;;;5.24;100.00
5814;BME280;2933;52.302;8.134;2022-11-13T17:32:07;101233.03;;;5.42;100.00
5814;BME280;2933;52.302;8.134;2022-11-13T17:37:09;101233.72;;;5.48;100.00
5814;BME280;2933;52.302;8.134;2022-11-13T17:42:10;101220.28;;;5.34;100.00
5814;BME280;2933;52.302;8.134;2022-11-13T17:47:13;101226.03;;;5.45;100.00
5814;BME280;2933;52.302;8.134;2022-11-13T17:52:14;101232.16;;;5.43;100.00
5814;BME280;2933;52.302;8.134;2022-11-13T17:57:16;101254.53;;;5.45;100.00
5814;BME280;2933;52.302;8.134;2022-11-13T18:02:19;101248.69;;;5.39;100.00
5814;BME280;2933;52.302;8.134;2022-11-13T18:07:20;101240.03;;;5.40;100.00
5814;BME280;2933;52.302;8.134;2022-11-13T18:12:22;101222.94;;;5.32;100.00
5814;BME280;2933;52.302;8.134;2022-11-13T18:17:25;101196.31;;;5.27;100.00
5814;BME280;2933;52.302;8.134;2022-11-13T18:22:26;101216.16;;;5.27;100.00
5814;BME280;2933;52.302;8.134;2022-11-13T18:27:28;101224.81;;;5.27;100.00
5814;BME280;2933;52.302;8.134;2022-11-13T18:32:31;101212.03;;;5.20;100.00
5814;BME280;2933;52.302;8.134;2022-11-13T18:37:33;101210.16;;;5.26;100.00
5814;BME280;2933;52.302;8.134;2022-11-13T18:42:34;101210.44;;;5.15;100.00
5814;BME280;2933;52.302;8.134;2022-11-13T18:47:38;101206.00;;;5.19;100.00
5814;BME280;2933;52.302;8.134;2022-11-13T18:52:40;101190.75;;;5.08;100.00
5814;BME280;2933;52.302;8.134;2022-11-13T18:57:41;101196.81;;;5.07;100.00
5814;BME280;2933;52.302;8.134;2022-11-13T19:02:44;101175.38;;;5.02;100.00
5814;BME280;2933;52.302;8.134;2022-11-13T19:07:46;101187.34;;;5.08;100.00
5814;BME280;2933;52.302;8.134;2022-11-13T19:12:49;101202.16;;;5.03;100.00
5814;BME280;2933;52.302;8.134;2022-11-13T19:17:52;101187.28;;;5.09;100.00
5814;BME280;2933;52.302;8.134;2022-11-13T19:22:54;101165.19;;;4.96;100.00
5814;BME280;2933;52.302;8.134;2022-11-13T19:27:55;101156.38;;;4.70;100.00
5814;BME280;2933;52.302;8.134;2022-11-13T19:32:58;101174.88;;;4.89;100.00
5814;BME280;2933;52.302;8.134;2022-11-13T19:37:59;101170.47;;;4.93;100.00
5814;BME280;2933;52.302;8.134;2022-11-13T19:43:01;101173.97;;;4.90;100.00
5814;BME280;2933;52.302;8.134;2022-11-13T19:48:04;101156.06;;;4.82;100.00
5814;BME280;2933;52.302;8.134;2022-11-13T19:53:06;101148.38;;;4.79;100.00
5814;BME280;2933;52.302;8.134;2022-11-13T19:58:08;101163.66;;;4.89;100.00
5814;BME280;2933;52.302;8.134;2022-11-13T20:03:11;101154.53;;;5.07;100.00
5814;BME280;2933;52.302;8.134;2022-11-13T20:08:13;101156.47;;;4.98;100.00
5814;BME280;2933;52.302;8.134;2022-11-13T20:13:14;101169.25;;;5.06;100.00
5814;BME280;2933;52.302;8.134;2022-11-13T20:18:17;101151.03;;;5.09;100.00
5814;BME280;2933;52.302;8.134;2022-11-13T20:23:19;101144.47;;;4.96;100.00
5814;BME280;2933;52.302;8.134;2022-11-13T20:28:21;101136.03;;;4.89;100.00
5814;BME280;2933;52.302;8.134;2022-11-13T20:33:24;101129.84;;;4.95;100.00
5814;BME280;2933;52.302;8.134;2022-11-13T20:38:26;101127.38;;;4.90;100.00
5814;BME280;2933;52.302;8.134;2022-11-13T20:43:28;101117.03;;;4.90;100.00
5814;BME280;2933;52.302;8.134;2022-11-13T20:48:31;101108.53;;;4.85;100.00
5814;BME280;2933;52.302;8.134;2022-11-13T20:53:33;101105.72;;;4.93;100.00
5814;BME280;2933;52.302;8.134;2022-11-13T20:58:35;101057.13;;;4.71;100.00
5814;BME280;2933;52.302;8.134;2022-11-13T21:03:40;101086.56;;;5.00;100.00
5814;BME280;2933;52.302;8.134;2022-11-13T21:08:42;101095.16;;;5.00;100.00
5814;BME280;2933;52.302;8.134;2022-11-13T21:13:44;101091.00;;;4.95;100.00
5814;BME280;2933;52.302;8.134;2022-11-13T21:18:48;101049.09;;;4.80;100.00
5814;BME280;2933;52.302;8.134;2022-11-13T21:23:50;101073.19;;;4.84;100.00
5814;BME280;2933;52.302;8.134;2022-11-13T21:28:53;101041.69;;;4.68;100.00
5814;BME280;2933;52.302;8.134;2022-11-13T21:33:56;101050.00;;;4.79;100.00
5814;BME280;2933;52.302;8.134;2022-11-13T21:38:58;101059.53;;;4.77;100.00
5814;BME280;2933;52.302;8.134;2022-11-13T21:44:04;101034.84;;;4.65;100.00
5814;BME280;2933;52.302;8.134;2022-11-13T21:49:10;101048.28;;;4.78;100.00
5814;BME280;2933;52.302;8.134;2022-11-13T21:54:12;101059.53;;;4.77;100.00
5814;BME280;2933;52.302;8.134;2022-11-13T21:59:14;101035.69;;;4.66;100.00
5814;BME280;2933;52.302;8.134;2022-11-13T22:04:17;101034.25;;;4.56;100.00
5814;BME280;2933;52.302;8.134;2022-11-13T22:09:20;101036.75;;;4.59;100.00
5814;BME280;2933;52.302;8.134;2022-11-13T22:14:22;101032.44;;;4.59;100.00
5814;BME280;2933;52.302;8.134;2022-11-13T22:19:25;101028.34;;;4.50;100.00
5814;BME280;2933;52.302;8.134;2022-11-13T22:24:26;101029.19;;;4.51;100.00
5814;BME280;2933;52.302;8.134;2022-11-13T22:29:28;101019.53;;;4.58;100.00
5814;BME280;2933;52.302;8.134;2022-11-13T22:34:31;101020.44;;;4.57;100.00
5814;BME280;2933;52.302;8.134;2022-11-13T22:39:33;101015.25;;;4.57;100.00
5814;BME280;2933;52.302;8.134;2022-11-13T22:44:35;101008.28;;;4.59;100.00
5814;BME280;2933;52.302;8.134;2022-11-13T22:49:38;101009.03;;;4.62;100.00
5814;BME280;2933;52.302;8.134;2022-11-13T22:54:40;100984.28;;;4.53;100.00
5814;BME280;2933;52.302;8.134;2022-11-13T22:59:41;100982.78;;;4.46;100.00
5814;BME280;2933;52.302;8.134;2022-11-13T23:04:44;100992.69;;;4.30;100.00
5814;BME280;2933;52.302;8.134;2022-11-13T23:09:46;100971.44;;;4.17;100.00
5814;BME280;2933;52.302;8.134;2022-11-13T23:14:47;100980.19;;;4.13;100.00
5814;BME280;2933;52.302;8.134;2022-11-13T23:19:50;100966.59;;;4.07;100.00
5814;BME280;2933;52.302;8.134;2022-11-13T23:24:52;100967.63;;;3.98;100.00
5814;BME280;2933;52.302;8.134;2022-11-13T23:29:53;100953.38;;;3.83;100.00
5814;BME280;2933;52.302;8.134;2022-11-13T23:34:56;100953.06;;;3.95;100.00
5814;BME280;2933;52.302;8.134;2022-11-13T23:39:58;100938.63;;;3.86;100.00
5814;BME280;2933;52.302;8.134;2022-11-13T23:44:59;100929.22;;;3.85;100.00
5814;BME280;2933;52.302;8.134;2022-11-13T23:50:03;100922.19;;;3.91;100.00
5814;BME280;2933;52.302;8.134;2022-11-13T23:55:05;100927.81;;;3.72;100.00
